sensor_id;sensor_type;location;lat;lon;timestamp;pressure;altitude;pressure_sealevel;temperature;humidity
43838;BME280;65998;46.256;7.534;2023-03-25T00:01:59;86698.56;;;20.63;44.54
43838;BME280;65998;46.256;7.534;2023-03-25T00:04:24;86696.44;;;20.64;44.89
43838;BME280;65998;46.256;7.534;2023-03-25T00:06:53;86689.97;;;20.67;44.77
43838;BME280;65998;46.256;7.534;2023-03-25T00:09:19;86695.09;;;20.63;44.98
43838;BME280;65998;46.256;7.534;2023-03-25T00:11:45;86696.44;;;20.64;45.14
43838;BME280;65998;46.256;7.534;2023-03-25T00:14:11;86704.03;;;20.65;44.90
43838;BME280;65998;46.256;7.534;2023-03-25T00:16:37;86686.03;;;20.62;44.72
43838;BME280;65998;46.256;7.534;2023-03-25T00:19:03;86680.47;;;20.62;44.72
43838;BME280;65998;46.256;7.534;2023-03-25T00:21:29;86681.81;;;20.63;44.72
43838;BME280;65998;46.256;7.534;2023-03-25T00:23:54;86692.41;;;20.61;44.49
43838;BME280;65998;46.256;7.534;2023-03-25T00:26:20;86696.63;;;20.60;44.66
43838;BME280;65998;46.256;7.534;2023-03-25T00:28:46;86706.47;;;20.59;44.48
43838;BME280;65998;46.256;7.534;2023-03-25T00:31:13;86708.47;;;20.60;44.99
43838;BME280;65998;46.256;7.534;2023-03-25T00:33:39;86716.38;;;20.56;44.84
43838;BME280;65998;46.256;7.534;2023-03-25T00:36:06;86713.78;;;20.52;44.96
43838;BME280;65998;46.256;7.534;2023-03-25T00:38:33;86705.22;;;20.56;44.90
43838;BME280;65998;46.256;7.534;2023-03-25T00:41:23;86698.28;;;20.55;44.86
43838;BME280;65998;46.256;7.534;2023-03-25T00:43:50;86697.81;;;20.50;44.68
43838;BME280;65998;46.256;7.534;2023-03-25T00:46:17;86697.34;;;20.46;45.22
43838;BME280;65998;46.256;7.534;2023-03-25T00:48:43;86682.81;;;20.43;45.13
43838;BME280;65998;46.256;7.534;2023-03-25T00:51:09;86686.38;;;20.42;45.04
43838;BME280;65998;46.256;7.534;2023-03-25T00:53:36;86684.94;;;20.43;44.92
43838;BME280;65998;46.256;7.534;2023-03-25T00:56:03;86676.06;;;20.38;44.93
43838;BME280;65998;46.256;7.534;2023-03-25T00:58:29;86685.31;;;20.34;45.11
43838;BME280;65998;46.256;7.534;2023-03-25T01:00:55;86682.63;;;20.32;45.18
43838;BME280;65998;46.256;7.534;2023-03-25T01:03:25;86683.31;;;20.33;45.32
43838;BME280;65998;46.256;7.534;2023-03-25T01:05:51;86679.38;;;20.28;45.33
43838;BME280;65998;46.256;7.534;2023-03-25T01:08:17;86674.66;;;20.24;45.56
43838;BME280;65998;46.256;7.534;2023-03-25T01:10:43;86682.38;;;20.24;45.73
43838;BME280;65998;46.256;7.534;2023-03-25T01:13:09;86683.03;;;20.24;45.99
43838;BME280;65998;46.256;7.534;2023-03-25T01:15:35;86697.94;;;20.19;46.92
43838;BME280;65998;46.256;7.534;2023-03-25T01:18:00;86700.75;;;20.19;47.18
43838;BME280;65998;46.256;7.534;2023-03-25T01:23:01;86700.16;;;20.16;47.40
43838;BME280;65998;46.256;7.534;2023-03-25T01:25:27;86701.72;;;20.13;47.37
43838;BME280;65998;46.256;7.534;2023-03-25T01:27:53;86704.50;;;20.13;46.91
43838;BME280;65998;46.256;7.534;2023-03-25T01:30:19;86686.31;;;20.14;46.98
43838;BME280;65998;46.256;7.534;2023-03-25T01:32:45;86690.66;;;20.11;47.04
43838;BME280;65998;46.256;7.534;2023-03-25T01:35:11;86696.34;;;20.09;46.82
43838;BME280;65998;46.256;7.534;2023-03-25T01:37:37;86702.59;;;20.09;46.52
43838;BME280;65998;46.256;7.534;2023-03-25T01:40:04;86705.47;;;20.07;46.63
43838;BME280;65998;46.256;7.534;2023-03-25T01:42:30;86728.75;;;20.02;46.63
43838;BME280;65998;46.256;7.534;2023-03-25T01:45:50;86721.53;;;20.07;46.49
43838;BME280;65998;46.256;7.534;2023-03-25T01:48:03;86725.88;;;20.04;46.27
43838;BME280;65998;46.256;7.534;2023-03-25T01:50:30;86739.53;;;19.95;46.70
43838;BME280;65998;46.256;7.534;2023-03-25T01:52:58;86733.19;;;19.97;46.64
43838;BME280;65998;46.256;7.534;2023-03-25T01:55:26;86733.38;;;19.93;46.64
43838;BME280;65998;46.256;7.534;2023-03-25T01:57:53;86731.16;;;19.95;46.31
43838;BME280;65998;46.256;7.534;2023-03-25T02:00:22;86739.03;;;19.91;46.62
43838;BME280;65998;46.256;7.534;2023-03-25T02:02:48;86733.75;;;19.85;46.56
43838;BME280;65998;46.256;7.534;2023-03-25T02:05:18;86737.69;;;19.90;46.78
43838;BME280;65998;46.256;7.534;2023-03-25T02:07:47;86746.25;;;19.86;46.87
43838;BME280;65998;46.256;7.534;2023-03-25T02:10:15;86727.59;;;19.82;46.89
43838;BME280;65998;46.256;7.534;2023-03-25T02:12:41;86733.53;;;19.74;46.80
43838;BME280;65998;46.256;7.534;2023-03-25T02:15:08;86724.31;;;19.77;46.71
43838;BME280;65998;46.256;7.534;2023-03-25T02:26:23;86744.00;;;19.73;46.40
43838;BME280;65998;46.256;7.534;2023-03-25T02:28:57;86749.69;;;19.71;46.77
43838;BME280;65998;46.256;7.534;2023-03-25T02:40:23;86718.72;;;19.63;47.15
43838;BME280;65998;46.256;7.534;2023-03-25T02:42:33;86721.69;;;19.59;46.69
43838;BME280;65998;46.256;7.534;2023-03-25T02:47:40;86721.31;;;19.52;46.22
43838;BME280;65998;46.256;7.534;2023-03-25T02:50:17;86717.06;;;19.53;46.26
43838;BME280;65998;46.256;7.534;2023-03-25T02:52:50;86711.75;;;19.47;46.49
43838;BME280;65998;46.256;7.534;2023-03-25T02:55:18;86706.28;;;19.45;46.24
43838;BME280;65998;46.256;7.534;2023-03-25T02:57:48;86707.81;;;19.42;46.46
43838;BME280;65998;46.256;7.534;2023-03-25T03:00:19;86710.03;;;19.39;46.51
43838;BME280;65998;46.256;7.534;2023-03-25T03:02:57;86700.91;;;19.41;46.05
43838;BME280;65998;46.256;7.534;2023-03-25T03:05:28;86692.06;;;19.36;46.43
43838;BME280;65998;46.256;7.534;2023-03-25T03:17:18;86665.06;;;19.33;46.21
43838;BME280;65998;46.256;7.534;2023-03-25T03:19:51;86674.94;;;19.30;46.26
43838;BME280;65998;46.256;7.534;2023-03-25T03:27:56;86645.25;;;19.24;46.28
43838;BME280;65998;46.256;7.534;2023-03-25T03:30:48;86649.09;;;19.17;46.34
43838;BME280;65998;46.256;7.534;2023-03-25T03:33:38;86634.97;;;19.21;46.32
43838;BME280;65998;46.256;7.534;2023-03-25T03:36:13;86642.06;;;19.18;46.43
43838;BME280;65998;46.256;7.534;2023-03-25T03:38:53;86635.16;;;19.17;46.43
43838;BME280;65998;46.256;7.534;2023-03-25T03:41:23;86647.16;;;19.13;46.79
43838;BME280;65998;46.256;7.534;2023-03-25T03:44:04;86663.88;;;19.13;46.79
43838;BME280;65998;46.256;7.534;2023-03-25T03:46:42;86672.22;;;19.13;46.91
43838;BME280;65998;46.256;7.534;2023-03-25T03:49:15;86688.34;;;19.10;46.79
43838;BME280;65998;46.256;7.534;2023-03-25T03:52:13;86693.16;;;19.12;47.22
43838;BME280;65998;46.256;7.534;2023-03-25T03:55:02;86691.06;;;19.12;47.29
43838;BME280;65998;46.256;7.534;2023-03-25T03:57:39;86704.31;;;19.12;47.12
43838;BME280;65998;46.256;7.534;2023-03-25T04:00:12;86706.41;;;19.11;47.30
43838;BME280;65998;46.256;7.534;2023-03-25T04:02:48;86719.66;;;19.11;47.20
43838;BME280;65998;46.256;7.534;2023-03-25T04:05:17;86726.75;;;19.08;47.15
43838;BME280;65998;46.256;7.534;2023-03-25T04:10:17;86713.59;;;19.06;47.09
43838;BME280;65998;46.256;7.534;2023-03-25T04:12:51;86715.63;;;19.08;46.90
43838;BME280;65998;46.256;7.534;2023-03-25T04:15:18;86713.88;;;19.00;46.87
43838;BME280;65998;46.256;7.534;2023-03-25T04:17:44;86707.03;;;18.97;47.43
43838;BME280;65998;46.256;7.534;2023-03-25T04:20:15;86710.31;;;19.02;47.11
43838;BME280;65998;46.256;7.534;2023-03-25T04:22:43;86707.91;;;18.94;47.08
43838;BME280;65998;46.256;7.534;2023-03-25T04:25:09;86712.13;;;18.93;47.03
43838;BME280;65998;46.256;7.534;2023-03-25T04:27:35;86711.53;;;18.90;47.38
43838;BME280;65998;46.256;7.534;2023-03-25T04:30:00;86715.00;;;18.91;47.45
43838;BME280;65998;46.256;7.534;2023-03-25T04:32:26;86717.09;;;18.90;47.29
43838;BME280;65998;46.256;7.534;2023-03-25T04:34:53;86715.59;;;18.93;47.27
43838;BME280;65998;46.256;7.534;2023-03-25T04:37:19;86717.19;;;18.88;47.60
43838;BME280;65998;46.256;7.534;2023-03-25T04:39:45;86713.06;;;18.87;47.06
43838;BME280;65998;46.256;7.534;2023-03-25T04:42:11;86712.38;;;18.87;47.00
43838;BME280;65998;46.256;7.534;2023-03-25T04:44:37;86715.84;;;18.87;47.16
43838;BME280;65998;46.256;7.534;2023-03-25T04:47:03;86709.59;;;18.87;47.58
43838;BME280;65998;46.256;7.534;2023-03-25T04:49:30;86701.34;;;18.85;47.71
43838;BME280;65998;46.256;7.534;2023-03-25T04:51:57;86703.38;;;18.86;47.81
43838;BME280;65998;46.256;7.534;2023-03-25T04:54:23;86708.44;;;18.81;47.82
43838;BME280;65998;46.256;7.534;2023-03-25T04:56:50;86704.13;;;18.85;47.39
43838;BME280;65998;46.256;7.534;2023-03-25T04:59:17;86701.53;;;18.80;47.52
43838;BME280;65998;46.256;7.534;2023-03-25T05:01:44;86705.84;;;18.77;47.78
43838;BME280;65998;46.256;7.534;2023-03-25T05:04:11;86704.31;;;18.80;48.01
43838;BME280;65998;46.256;7.534;2023-03-25T05:06:40;86702.88;;;18.81;47.71
43838;BME280;65998;46.256;7.534;2023-03-25T05:09:09;86696.72;;;18.79;47.51
43838;BME280;65998;46.256;7.534;2023-03-25T05:11:37;86703.06;;;18.77;47.17
43838;BME280;65998;46.256;7.534;2023-03-25T05:14:03;86706.69;;;18.74;47.19
43838;BME280;65998;46.256;7.534;2023-03-25T05:16:29;86705.16;;;18.77;47.08
43838;BME280;65998;46.256;7.534;2023-03-25T05:18:55;86705.16;;;18.77;46.86
43838;BME280;65998;46.256;7.534;2023-03-25T05:21:21;86702.38;;;18.77;46.93
43838;BME280;65998;46.256;7.534;2023-03-25T05:23:46;86701.03;;;18.76;47.16
43838;BME280;65998;46.256;7.534;2023-03-25T05:26:13;86698.34;;;18.74;46.96
43838;BME280;65998;46.256;7.534;2023-03-25T05:28:39;86696.13;;;18.76;46.94
43838;BME280;65998;46.256;7.534;2023-03-25T05:31:06;86694.13;;;18.75;46.96
43838;BME280;65998;46.256;7.534;2023-03-25T05:33:33;86678.19;;;18.73;47.05
43838;BME280;65998;46.256;7.534;2023-03-25T05:36:00;86686.59;;;18.71;47.30
43838;BME280;65998;46.256;7.534;2023-03-25T05:38:25;86695.03;;;18.69;47.56
43838;BME280;65998;46.256;7.534;2023-03-25T05:40:51;86689.47;;;18.69;47.28
43838;BME280;65998;46.256;7.534;2023-03-25T05:43:17;86690.91;;;18.68;47.56
43838;BME280;65998;46.256;7.534;2023-03-25T05:45:43;86683.97;;;18.67;47.69
43838;BME280;65998;46.256;7.534;2023-03-25T05:48:09;86684.66;;;18.68;47.48
43838;BME280;65998;46.256;7.534;2023-03-25T05:50:36;86676.88;;;18.70;47.25
43838;BME280;65998;46.256;7.534;2023-03-25T05:53:03;86690.13;;;18.70;48.57
43838;BME280;65998;46.256;7.534;2023-03-25T05:55:29;86689.63;;;18.65;48.48
43838;BME280;65998;46.256;7.534;2023-03-25T05:57:54;86698.66;;;18.66;48.45
43838;BME280;65998;46.256;7.534;2023-03-25T06:00:21;86703.47;;;18.67;48.25
43838;BME280;65998;46.256;7.534;2023-03-25T06:02:47;86706.16;;;18.69;48.31
43838;BME280;65998;46.256;7.534;2023-03-25T06:05:15;86706.16;;;18.69;47.74
43838;BME280;65998;46.256;7.534;2023-03-25T06:07:42;86710.28;;;18.70;47.48
43838;BME280;65998;46.256;7.534;2023-03-25T06:10:15;86708.03;;;18.75;47.25
43838;BME280;65998;46.256;7.534;2023-03-25T06:12:45;86696.38;;;18.70;47.17
43838;BME280;65998;46.256;7.534;2023-03-25T06:15:14;86701.19;;;18.72;46.50
43838;BME280;65998;46.256;7.534;2023-03-25T06:17:40;86705.00;;;18.64;46.71
43838;BME280;65998;46.256;7.534;2023-03-25T06:20:09;86709.53;;;18.72;46.88
43838;BME280;65998;46.256;7.534;2023-03-25T06:22:43;86708.13;;;18.73;46.79
43838;BME280;65998;46.256;7.534;2023-03-25T06:25:11;86700.59;;;18.69;46.87
43838;BME280;65998;46.256;7.534;2023-03-25T06:27:37;86706.44;;;18.63;46.88
43838;BME280;65998;46.256;7.534;2023-03-25T06:30:03;86723.72;;;18.66;47.00
43838;BME280;65998;46.256;7.534;2023-03-25T06:32:29;86723.72;;;18.66;46.82
43838;BME280;65998;46.256;7.534;2023-03-25T06:34:55;86722.28;;;18.67;46.87
43838;BME280;65998;46.256;7.534;2023-03-25T06:37:21;86740.31;;;18.68;47.28
43838;BME280;65998;46.256;7.534;2023-03-25T06:39:47;86741.75;;;18.67;47.56
43838;BME280;65998;46.256;7.534;2023-03-25T06:42:12;86743.09;;;18.68;47.39
43838;BME280;65998;46.256;7.534;2023-03-25T06:44:38;86742.50;;;18.65;47.44
43838;BME280;65998;46.256;7.534;2023-03-25T06:47:04;86743.28;;;18.64;47.90
43838;BME280;65998;46.256;7.534;2023-03-25T06:49:30;86748.94;;;18.62;47.80
43838;BME280;65998;46.256;7.534;2023-03-25T06:51:56;86735.75;;;18.60;47.75
43838;BME280;65998;46.256;7.534;2023-03-25T06:54:23;86743.41;;;18.60;47.58
43838;BME280;65998;46.256;7.534;2023-03-25T06:56:49;86751.94;;;18.56;48.02
43838;BME280;65998;46.256;7.534;2023-03-25T06:59:15;86753.88;;;18.59;47.98
43838;BME280;65998;46.256;7.534;2023-03-25T07:01:40;86753.81;;;18.61;46.69
43838;BME280;65998;46.256;7.534;2023-03-25T07:04:06;86756.66;;;18.59;45.05
43838;BME280;65998;46.256;7.534;2023-03-25T07:06:32;86754.06;;;18.55;44.89
43838;BME280;65998;46.256;7.534;2023-03-25T07:08:58;86756.75;;;18.57;44.77
43838;BME280;65998;46.256;7.534;2023-03-25T07:11:26;86755.16;;;18.62;44.53
43838;BME280;65998;46.256;7.534;2023-03-25T07:13:54;86752.69;;;18.54;44.64
43838;BME280;65998;46.256;7.534;2023-03-25T07:16:21;86744.34;;;18.54;44.23
43838;BME280;65998;46.256;7.534;2023-03-25T07:18:48;86745.97;;;18.49;44.16
43838;BME280;65998;46.256;7.534;2023-03-25T07:21:14;86739.97;;;18.42;44.10
43838;BME280;65998;46.256;7.534;2023-03-25T07:23:39;86735.69;;;18.45;44.25
43838;BME280;65998;46.256;7.534;2023-03-25T07:26:06;86744.09;;;18.43;44.38
43838;BME280;65998;46.256;7.534;2023-03-25T07:28:32;86737.28;;;18.40;44.77
43838;BME280;65998;46.256;7.534;2023-03-25T07:30:57;86748.50;;;18.38;50.30
43838;BME280;65998;46.256;7.534;2023-03-25T07:33:24;86745.72;;;18.38;50.12
43838;BME280;65998;46.256;7.534;2023-03-25T07:35:49;86745.69;;;18.55;49.16
43838;BME280;65998;46.256;7.534;2023-03-25T07:38:15;86730.63;;;18.67;48.99
43838;BME280;65998;46.256;7.534;2023-03-25T07:40:41;86739.22;;;18.77;49.16
43838;BME280;65998;46.256;7.534;2023-03-25T07:43:07;86728.41;;;18.86;49.61
43838;BME280;65998;46.256;7.534;2023-03-25T07:45:33;86732.97;;;18.94;49.82
43838;BME280;65998;46.256;7.534;2023-03-25T07:48:00;86734.34;;;19.09;48.89
43838;BME280;65998;46.256;7.534;2023-03-25T07:50:26;86732.06;;;19.14;48.17
43838;BME280;65998;46.256;7.534;2023-03-25T07:52:53;86740.22;;;19.18;47.80
43838;BME280;65998;46.256;7.534;2023-03-25T07:55:18;86738.03;;;19.21;47.59
43838;BME280;65998;46.256;7.534;2023-03-25T07:57:45;86744.69;;;19.28;47.44
43838;BME280;65998;46.256;7.534;2023-03-25T08:00:11;86746.50;;;19.33;47.12
43838;BME280;65998;46.256;7.534;2023-03-25T08:02:38;86747.88;;;19.34;46.99
43838;BME280;65998;46.256;7.534;2023-03-25T08:05:05;86757.28;;;19.41;46.94
43838;BME280;65998;46.256;7.534;2023-03-25T08:07:32;86749.59;;;19.42;46.72
43838;BME280;65998;46.256;7.534;2023-03-25T08:09:58;86752.31;;;19.44;46.58
43838;BME280;65998;46.256;7.534;2023-03-25T08:12:24;86751.44;;;19.48;46.35
43838;BME280;65998;46.256;7.534;2023-03-25T08:14:50;86747.13;;;19.51;46.23
43838;BME280;65998;46.256;7.534;2023-03-25T08:17:16;86747.81;;;19.51;46.34
43838;BME280;65998;46.256;7.534;2023-03-25T08:19:42;86751.19;;;19.54;46.11
43838;BME280;65998;46.256;7.534;2023-03-25T08:22:08;86745.63;;;19.54;46.06
43838;BME280;65998;46.256;7.534;2023-03-25T08:24:33;86750.34;;;19.57;45.85
43838;BME280;65998;46.256;7.534;2023-03-25T08:27:00;86748.22;;;19.58;45.87
43838;BME280;65998;46.256;7.534;2023-03-25T08:29:26;86747.34;;;19.61;45.71
43838;BME280;65998;46.256;7.534;2023-03-25T08:31:53;86739.66;;;19.62;45.76
43838;BME280;65998;46.256;7.534;2023-03-25T08:34:20;86739.56;;;19.64;45.58
43838;BME280;65998;46.256;7.534;2023-03-25T08:36:46;86745.25;;;19.62;45.65
43838;BME280;65998;46.256;7.534;2023-03-25T08:39:12;86744.56;;;19.61;45.41
43838;BME280;65998;46.256;7.534;2023-03-25T08:41:38;86753.41;;;19.66;45.52
43838;BME280;65998;46.256;7.534;2023-03-25T08:44:05;86751.78;;;19.71;45.24
43838;BME280;65998;46.256;7.534;2023-03-25T08:46:32;86755.34;;;19.69;45.13
43838;BME280;65998;46.256;7.534;2023-03-25T08:48:57;86751.88;;;19.69;45.06
43838;BME280;65998;46.256;7.534;2023-03-25T08:51:23;86737.94;;;19.69;44.94
43838;BME280;65998;46.256;7.534;2023-03-25T08:53:49;86742.00;;;19.72;44.88
43838;BME280;65998;46.256;7.534;2023-03-25T08:56:15;86747.47;;;19.74;45.01
43838;BME280;65998;46.256;7.534;2023-03-25T08:58:41;86744.09;;;19.71;44.74
43838;BME280;65998;46.256;7.534;2023-03-25T09:01:07;86737.84;;;19.71;44.73
43838;BME280;65998;46.256;7.534;2023-03-25T09:03:33;86749.69;;;19.71;44.94
43838;BME280;65998;46.256;7.534;2023-03-25T09:06:05;86737.66;;;19.75;44.80
43838;BME280;65998;46.256;7.534;2023-03-25T09:08:31;86743.53;;;19.69;44.60
43838;BME280;65998;46.256;7.534;2023-03-25T09:10:58;86740.75;;;19.69;44.57
43838;BME280;65998;46.256;7.534;2023-03-25T09:13:24;86740.75;;;19.69;44.68
43838;BME280;65998;46.256;7.534;2023-03-25T09:15:50;86745.72;;;19.66;44.45
43838;BME280;65998;46.256;7.534;2023-03-25T09:18:16;86743.63;;;19.67;44.57
43838;BME280;65998;46.256;7.534;2023-03-25T09:20:43;86742.09;;;19.70;44.24
43838;BME280;65998;46.256;7.534;2023-03-25T09:23:09;86755.53;;;19.65;44.21
43838;BME280;65998;46.256;7.534;2023-03-25T09:25:36;86758.22;;;19.67;44.40
43838;BME280;65998;46.256;7.534;2023-03-25T09:28:02;86745.25;;;19.62;44.39
43838;BME280;65998;46.256;7.534;2023-03-25T09:30:28;86743.91;;;19.61;44.31
43838;BME280;65998;46.256;7.534;2023-03-25T09:32:53;86740.34;;;19.62;44.03
43838;BME280;65998;46.256;7.534;2023-03-25T09:35:19;86745.91;;;19.62;44.09
43838;BME280;65998;46.256;7.534;2023-03-25T09:37:45;86746.59;;;19.63;43.91
43838;BME280;65998;46.256;7.534;2023-03-25T09:40:16;86754.09;;;19.66;43.91
43838;BME280;65998;46.256;7.534;2023-03-25T09:42:49;86759.84;;;19.62;43.96
43838;BME280;65998;46.256;7.534;2023-03-25T09:48:07;86773.88;;;19.60;43.88
43838;BME280;65998;46.256;7.534;2023-03-25T09:50:41;86768.13;;;19.64;43.59
43838;BME280;65998;46.256;7.534;2023-03-25T09:55:41;86764.66;;;19.64;43.59
43838;BME280;65998;46.256;7.534;2023-03-25T10:00:52;86766.78;;;19.63;43.55
43838;BME280;65998;46.256;7.534;2023-03-25T10:03:22;86765.72;;;19.56;43.39
43838;BME280;65998;46.256;7.534;2023-03-25T10:06:11;86766.97;;;19.59;43.33
43838;BME280;65998;46.256;7.534;2023-03-25T10:14:51;86773.50;;;19.54;43.28
43838;BME280;65998;46.256;7.534;2023-03-25T10:20:20;86775.00;;;19.51;43.34
43838;BME280;65998;46.256;7.534;2023-03-25T10:23:04;86768.16;;;19.48;43.13
43838;BME280;65998;46.256;7.534;2023-03-25T10:25:36;86779.41;;;19.45;43.18
43838;BME280;65998;46.256;7.534;2023-03-25T10:28:04;86786.59;;;19.40;43.27
43838;BME280;65998;46.256;7.534;2023-03-25T10:30:37;86789.28;;;19.42;43.18
43838;BME280;65998;46.256;7.534;2023-03-25T10:33:11;86787.28;;;19.41;43.27
43838;BME280;65998;46.256;7.534;2023-03-25T10:35:45;86780.34;;;19.40;43.19
43838;BME280;65998;46.256;7.534;2023-03-25T10:38:20;86775.53;;;19.38;43.05
43838;BME280;65998;46.256;7.534;2023-03-25T10:40:49;86768.03;;;19.35;43.15
43838;BME280;65998;46.256;7.534;2023-03-25T10:46:12;86766.03;;;19.33;43.01
43838;BME280;65998;46.256;7.534;2023-03-25T10:48:39;86778.00;;;19.30;43.14
43838;BME280;65998;46.256;7.534;2023-03-25T10:51:18;86786.28;;;19.32;43.11
43838;BME280;65998;46.256;7.534;2023-03-25T10:53:49;86778.69;;;19.30;43.05
43838;BME280;65998;46.256;7.534;2023-03-25T10:56:19;86772.53;;;19.28;43.01
43838;BME280;65998;46.256;7.534;2023-03-25T10:58:53;86781.66;;;19.26;43.05
43838;BME280;65998;46.256;7.534;2023-03-25T11:01:33;86773.38;;;19.24;43.03
43838;BME280;65998;46.256;7.534;2023-03-25T11:04:01;86769.34;;;19.21;42.96
43838;BME280;65998;46.256;7.534;2023-03-25T11:06:32;86775.69;;;19.20;43.14
43838;BME280;65998;46.256;7.534;2023-03-25T11:09:15;86777.78;;;19.19;43.11
43838;BME280;65998;46.256;7.534;2023-03-25T11:11:41;86776.63;;;19.14;43.15
43838;BME280;65998;46.256;7.534;2023-03-25T11:14:09;86773.16;;;19.13;43.10
43838;BME280;65998;46.256;7.534;2023-03-25T11:16:41;86769.72;;;19.13;43.11
43838;BME280;65998;46.256;7.534;2023-03-25T11:22:09;86772.56;;;19.11;43.02
43838;BME280;65998;46.256;7.534;2023-03-25T11:24:41;86765.75;;;19.08;43.05
43838;BME280;65998;46.256;7.534;2023-03-25T11:27:07;86775.72;;;19.03;43.06
43838;BME280;65998;46.256;7.534;2023-03-25T11:29:36;86774.38;;;19.02;43.08
43838;BME280;65998;46.256;7.534;2023-03-25T11:32:15;86772.94;;;19.03;43.04
43838;BME280;65998;46.256;7.534;2023-03-25T11:34:46;86765.44;;;18.99;43.35
43838;BME280;65998;46.256;7.534;2023-03-25T11:37:20;86765.44;;;18.99;43.41
43838;BME280;65998;46.256;7.534;2023-03-25T11:39:54;86761.31;;;18.98;43.60
43838;BME280;65998;46.256;7.534;2023-03-25T11:42:30;86766.47;;;18.92;43.76
43838;BME280;65998;46.256;7.534;2023-03-25T11:44:57;86781.72;;;18.93;43.80
43838;BME280;65998;46.256;7.534;2023-03-25T11:47:25;86776.91;;;18.91;43.78
43838;BME280;65998;46.256;7.534;2023-03-25T11:49:54;86772.19;;;18.88;43.54
43838;BME280;65998;46.256;7.534;2023-03-25T11:52:23;86777.00;;;18.89;43.69
43838;BME280;65998;46.256;7.534;2023-03-25T11:54:55;86784.69;;;18.89;43.74
43838;BME280;65998;46.256;7.534;2023-03-25T11:57:30;86783.34;;;18.88;43.69
43838;BME280;65998;46.256;7.534;2023-03-25T12:00:06;86780.56;;;18.88;43.75
43838;BME280;65998;46.256;7.534;2023-03-25T12:02:40;86782.84;;;18.83;43.70
43838;BME280;65998;46.256;7.534;2023-03-25T12:07:47;86774.47;;;18.83;43.81
43838;BME280;65998;46.256;7.534;2023-03-25T12:18:15;86768.41;;;18.78;43.78
43838;BME280;65998;46.256;7.534;2023-03-25T12:29:08;86751.22;;;18.74;43.66
43838;BME280;65998;46.256;7.534;2023-03-25T12:40:20;86760.56;;;18.66;43.72
43838;BME280;65998;46.256;7.534;2023-03-25T12:43:03;86761.41;;;18.63;43.87
43838;BME280;65998;46.256;7.534;2023-03-25T12:53:40;86755.41;;;18.56;43.88
43838;BME280;65998;46.256;7.534;2023-03-25T13:06:41;86751.34;;;18.53;43.89
43838;BME280;65998;46.256;7.534;2023-03-25T13:09:14;86736.25;;;18.48;44.01
43838;BME280;65998;46.256;7.534;2023-03-25T13:11:46;86744.63;;;18.48;44.02
43838;BME280;65998;46.256;7.534;2023-03-25T13:14:27;86730.03;;;18.47;43.92
43838;BME280;65998;46.256;7.534;2023-03-25T13:16:58;86737.03;;;18.46;43.93
43838;BME280;65998;46.256;7.534;2023-03-25T13:19:28;86737.13;;;18.44;43.98
43838;BME280;65998;46.256;7.534;2023-03-25T13:21:58;86728.09;;;18.44;44.05
43838;BME280;65998;46.256;7.534;2023-03-25T13:24:51;86731.53;;;18.44;43.89
43838;BME280;65998;46.256;7.534;2023-03-25T13:27:19;86731.03;;;18.40;43.93
43838;BME280;65998;46.256;7.534;2023-03-25T13:29:54;86726.81;;;18.41;44.00
43838;BME280;65998;46.256;7.534;2023-03-25T13:32:28;86720.59;;;18.40;44.00
43838;BME280;65998;46.256;7.534;2023-03-25T13:35:11;86724.03;;;18.41;44.00
43838;BME280;65998;46.256;7.534;2023-03-25T13:37:48;86724.13;;;18.39;44.04
43838;BME280;65998;46.256;7.534;2023-03-25T13:40:38;86725.56;;;18.38;43.83
43838;BME280;65998;46.256;7.534;2023-03-25T13:43:31;86724.88;;;18.37;43.88
43838;BME280;65998;46.256;7.534;2023-03-25T13:46:03;86720.09;;;18.36;43.91
43838;BME280;65998;46.256;7.534;2023-03-25T13:48:53;86726.31;;;18.36;44.03
43838;BME280;65998;46.256;7.534;2023-03-25T13:51:21;86725.22;;;18.29;43.91
43838;BME280;65998;46.256;7.534;2023-03-25T13:54:14;86721.59;;;18.33;43.91
43838;BME280;65998;46.256;7.534;2023-03-25T14:08:47;86718.56;;;18.22;43.99
43838;BME280;65998;46.256;7.534;2023-03-25T14:13:58;86731.38;;;18.15;44.04
43838;BME280;65998;46.256;7.534;2023-03-25T14:16:30;86723.72;;;18.15;44.07
43838;BME280;65998;46.256;7.534;2023-03-25T14:19:27;86725.81;;;18.15;43.99
43838;BME280;65998;46.256;7.534;2023-03-25T14:21:54;86726.00;;;18.11;44.03
43838;BME280;65998;46.256;7.534;2023-03-25T14:24:36;86728.00;;;18.12;44.08
43838;BME280;65998;46.256;7.534;2023-03-25T14:27:19;86732.91;;;18.12;44.10
43838;BME280;65998;46.256;7.534;2023-03-25T14:30:01;86730.13;;;18.12;43.99
43838;BME280;65998;46.256;7.534;2023-03-25T14:32:31;86730.88;;;18.10;44.01
43838;BME280;65998;46.256;7.534;2023-03-25T14:45:53;86733.81;;;18.06;43.91
43838;BME280;65998;46.256;7.534;2023-03-25T14:48:48;86736.59;;;18.06;43.96
43838;BME280;65998;46.256;7.534;2023-03-25T14:54:05;86730.44;;;18.04;43.84
43838;BME280;65998;46.256;7.534;2023-03-25T14:59:43;86740.97;;;18.01;43.84
43838;BME280;65998;46.256;7.534;2023-03-25T15:02:28;86736.75;;;18.02;43.86
43838;BME280;65998;46.256;7.534;2023-03-25T15:04:58;86738.94;;;18.00;43.93
43838;BME280;65998;46.256;7.534;2023-03-25T15:07:50;86736.16;;;18.00;43.82
43838;BME280;65998;46.256;7.534;2023-03-25T15:10:38;86727.16;;;17.99;43.90
43838;BME280;65998;46.256;7.534;2023-03-25T15:13:15;86734.16;;;17.98;43.86
43838;BME280;65998;46.256;7.534;2023-03-25T15:18:09;86728.16;;;17.92;43.72
43838;BME280;65998;46.256;7.534;2023-03-25T15:20:35;86726.13;;;17.90;43.77
43838;BME280;65998;46.256;7.534;2023-03-25T15:23:20;86739.13;;;17.96;43.77
43838;BME280;65998;46.256;7.534;2023-03-25T15:25:53;86728.91;;;17.90;43.63
43838;BME280;65998;46.256;7.534;2023-03-25T15:34:01;86728.91;;;17.90;43.80
43838;BME280;65998;46.256;7.534;2023-03-25T15:42:04;86729.66;;;17.89;43.73
43838;BME280;65998;46.256;7.534;2023-03-25T15:50:09;86732.38;;;17.91;43.65
43838;BME280;65998;46.256;7.534;2023-03-25T15:53:01;86735.16;;;17.91;43.53
43838;BME280;65998;46.256;7.534;2023-03-25T15:55:36;86731.69;;;17.90;43.65